Meteo Giornale » Osservazioni meteo Stati Uniti (USA) » Kearney
ore: 22:56 - Osservazioni Meteo Kearney
Lat. 40° 44' N Lon. 99° 0' W Alt. 649 metri s.l.m.
24 °C
Sereno
Temp. 24 Ore
21 °C
31 °C
Nord
5.5 Km/h
Dew point 21 °C
Umidità 83 %
Visibilità 10 Km
Il sole sorge alle ore 07:02
Il sole tramonta alle ore 20:10
| Data e Ora | Cielo e Fenomeni | T °C | DP °C | Um. % | Pres. hPa | Vis. km | Vento km/h | |
|---|---|---|---|---|---|---|---|---|
| Oggi h: 22:56 | Sereno | 24 | 21 | 83 | 1016 | 10 | N 5.5 | |
| Oggi h: 21:56 | Sereno | 24 | 20 | 78 | 1015 | 10 | E 13 | |
| Oggi h: 20:56 | Pioggia | 24 | 21 | 83 | 1014 | 10 | E 11.1 | |
| Oggi h: 19:56 | Sereno | 28 | 22 | 69 | 1014 | 10 | E/NE 9.3 | |
| Oggi h: 18:56 | Sereno | 31 | 20 | 52 | 1014 | 10 | E/SE 7.4 | |
| Oggi h: 17:56 | Sereno | 31 | 19 | 48 | 1015 | 10 | SE 13 | |
| Oggi h: 16:56 | Sereno | 31 | 19 | 48 | 1015 | 10 | S/SE 11.1 | |
| Oggi h: 15:56 | Sereno | 31 | 19 | 48 | 1015 | 10 | S/SE 16.7 | |
| Oggi h: 14:56 | Sereno | 31 | 19 | 48 | 1016 | 10 | S 16.7 | |
| Oggi h: 13:56 | Sereno | 30 | 19 | 51 | 1016 | 10 | SE 9.3 | |
| Oggi h: 12:56 | Sereno | 29 | 19 | 54 | 1016 | 10 | E/SE 9.3 | |
| Oggi h: 11:56 | Sereno | 28 | 18 | 54 | 1016 | 10 | N 7.4 | |
| Oggi h: 10:56 | Sereno | 26 | 18 | 61 | 1015 | 10 | N/NO 18.5 | |
| Oggi h: 09:56 | Sereno | 23 | 17 | 68 | 1016 | 10 | N/NO 16.7 | |
| Oggi h: 08:56 | Sereno | 21 | 17 | 77 | 1016 | 10 | N/NO 13 | |
| Oggi h: 07:56 | Sereno | 21 | 17 | 77 | 1015 | 10 | N/NO 16.7 | |
| Oggi h: 06:56 | Sereno | 21 | 18 | 82 | 1015 | 10 | S/SE 7.4 | |
| Oggi h: 05:56 | Pioggia | 24 | 17 | 64 | 1016 | 10 | SO 16.7 | |
| Oggi h: 04:56 | Sereno | 24 | 16 | 60 | 1015 | 10 | O/SO 16.7 | |
| Oggi h: 03:56 | Molto Nuvoloso | 23 | 17 | 68 | 1014 | 10 | S/SO 16.7 | |
| Oggi h: 02:56 | Sereno | 24 | 18 | 69 | 1013 | 10 | S/SO 13 | |
| Oggi h: 01:56 | Sereno | 26 | 19 | 65 | 1012 | 10 | SO 14.8 | |
| Oggi h: 00:56 | Sereno | 26 | 21 | 73 | 1012 | 10 | O/SO 9.3 | |
| Ieri h: 23:56 | Sereno | 24 | 22 | 88 | 1011 | 10 | S/SO 7.4 | |



